Terminal Aerodrome Forecast
Issued by NWS Omaha/Valley, NE

Home | Current Version | Previous Version | Graphics & Text | Print | Product List | Glossary On
Versions: 1 2 3 4 5 6 7 8 9 10 11 12 13 14 15 16 17 18 19
000
FTUS43 KOAX 200315 AAA
TAFOFK
TAF AMD
KOFK 200315Z 2003/2024 12008KT P6SM BKN150
     FM200400 15006KT P6SM SCT200 WS020/21040KT
     FM201100 13004KT P6SM SCT250=

USA.gov is the U.S. government's official web portal to all federal, state and local government web resources and services.